Virginia Beach, VA (23465)

6:36 AM EDT on June 03, 2015 (GMT -0400)
Kempsville | | Change Station
CLOSE
Current Station
Personal Weather Station
Location: Virginia Beach, VA
Elevation: 20 ft
Nearby Weather Stations

Elev 20 ft 36.80 °N, 76.19 °W | Updated 1 second ago

Overcast
Overcast
63.6 °F
Feels Like 63.6 °F
N
0.0
Wind Variable Wind from NNW
Gusts 3.0 mph

Today
High -- | Low -- °F
--% Chance of Precip.
Yesterday
High -- | Low -- °F
Precip. -- in
5:46 AM 8:19 PM
Full, 99% visible
Pressure 30.04 in
Visibility 6.0 miles
Clouds Overcast 300 ft
Dew Point 63 °F
Humidity 99%
Rainfall 0.00 in
Snow Depth Not available.
UV 0 out of 12
Pollen 4.20 out of 12
Air Quality Not available.
Flu Activity Sporadic
METAR KORF 030951Z AUTO 03012KT 6SM BR OVC003 18/17 A3004 RMK AO2 SLP172 T01780167 TSNO $

More Conditions Fewer Conditions

Pressure 30.04 in
Visibility 6.0 miles
Clouds Overcast 300 ft
Dew Point 63 °F
Humidity 99%
Rainfall 0.00 in
Snow Depth Not available.
UV 0 out of 12
Pollen 4.20 out of 12
Air Quality Not available.
Flu Activity Sporadic
METAR KORF 030951Z AUTO 03012KT 6SM BR OVC003 18/17 A3004 RMK AO2 SLP172 T01780167 TSNO $

More Conditions Fewer Conditions

10-Day Weather Forecast

×

Almanac

Astronomy

Jun. 03, 2015 Rise Set
Actual Time
Civil Twilight
Nautical Twilight
Astronomical Twilight
Moon
Length of Visible Light
Length of Day
Tomorrow will be .
, % of the Moon is Illuminated

Today's Extremes

State Highs State Lows

Community

WunderPhotos

Upload Photos

1,826,198 photos uploaded!

WunderBlogs® & News

Nearby

Air Quality

  Air Quality AQ Index Pollutant
Not available.

Snow Depth

Station Depth Elevation

Earthquake Activity

City Distance Mag. Time & Date
Minimum magnitude displayed is 2.5.

Coastal Water Temperatures

Place Temperature

Stations

Nearby Weather Stations

Station Location Temp. Windchill Dew Point Humidity Wind Precip. Elev Updated Type